createdAt,value
2023-04-11T00:01:32.453Z,11.00
2023-04-11T00:04:01.189Z,11.00
2023-04-11T00:06:29.861Z,11.00
2023-04-11T00:08:58.446Z,11.10
2023-04-11T00:11:28.385Z,11.00
2023-04-11T00:13:57.807Z,11.00
2023-04-11T00:16:26.860Z,11.00
2023-04-11T00:18:57.251Z,11.00
2023-04-11T00:21:25.935Z,11.00
2023-04-11T00:23:54.502Z,11.00
2023-04-11T00:26:23.052Z,11.10
2023-04-11T00:28:53.264Z,11.00
2023-04-11T00:31:21.933Z,10.90
2023-04-11T00:33:50.358Z,11.00
2023-04-11T00:36:19.062Z,11.00
2023-04-11T00:38:47.542Z,11.00
2023-04-11T00:41:16.035Z,11.00
2023-04-11T00:43:44.478Z,11.10
2023-04-11T00:48:43.370Z,11.10
2023-04-11T00:51:11.787Z,11.00
2023-04-11T00:53:40.228Z,10.90
2023-04-11T00:56:09.688Z,11.00
2023-04-11T00:58:38.587Z,11.00
2023-04-11T01:01:09.586Z,11.10
2023-04-11T01:03:41.401Z,11.00
2023-04-11T01:06:11.515Z,11.00
2023-04-11T01:08:40.606Z,11.10
2023-04-11T01:11:09.378Z,11.00
2023-04-11T01:13:40.626Z,10.90
2023-04-11T01:16:10.138Z,10.90
2023-04-11T01:18:40.030Z,11.00
2023-04-11T01:21:08.918Z,10.90
2023-04-11T01:23:38.740Z,10.90
2023-04-11T01:26:07.486Z,10.90
2023-04-11T01:28:35.947Z,10.90
2023-04-11T01:31:04.409Z,10.80
2023-04-11T01:33:32.855Z,10.80
2023-04-11T01:36:01.271Z,10.70
2023-04-11T01:38:29.785Z,10.60
2023-04-11T01:41:00.199Z,10.50
2023-04-11T01:43:28.571Z,10.40
2023-04-11T01:45:57.021Z,10.40
2023-04-11T01:48:25.642Z,10.40
2023-04-11T01:50:55.792Z,10.40
2023-04-11T01:53:24.291Z,10.40
2023-04-11T01:55:52.813Z,10.30
2023-04-11T01:58:22.705Z,10.40
2023-04-11T02:00:51.218Z,10.30
2023-04-11T02:03:21.233Z,10.30
2023-04-11T02:05:49.874Z,10.30
2023-04-11T02:08:18.501Z,10.20
2023-04-11T02:10:46.980Z,10.20
2023-04-11T02:13:15.507Z,10.20
2023-04-11T02:15:45.451Z,10.20
2023-04-11T02:18:13.997Z,10.10
2023-04-11T02:20:42.445Z,10.10
2023-04-11T02:23:11.150Z,10.10
2023-04-11T02:25:39.585Z,10.20
2023-04-11T02:28:08.298Z,10.10
2023-04-11T02:30:37.182Z,10.10
2023-04-11T02:33:07.060Z,10.20
2023-04-11T02:35:35.649Z,10.10
2023-04-11T02:38:04.093Z,10.10
2023-04-11T02:40:32.547Z,10.10
2023-04-11T02:43:01.492Z,10.00
2023-04-11T02:45:29.937Z,9.90
2023-04-11T02:47:59.213Z,9.90
2023-04-11T02:50:29.174Z,9.90
2023-04-11T02:52:57.570Z,9.80
2023-04-11T02:55:27.189Z,9.80
2023-04-11T02:57:55.614Z,9.80
2023-04-11T03:00:24.956Z,9.90
2023-04-11T03:02:53.516Z,9.90
2023-04-11T03:05:22.103Z,9.90
2023-04-11T03:07:51.836Z,9.90
2023-04-11T03:10:20.249Z,10.00
2023-04-11T03:12:48.766Z,10.00
2023-04-11T03:15:17.719Z,10.00
2023-04-11T03:17:46.116Z,10.10
2023-04-11T03:20:19.961Z,10.10
2023-04-11T03:22:48.595Z,10.00
2023-04-11T03:25:18.704Z,10.00
2023-04-11T03:27:47.300Z,10.00
2023-04-11T03:30:16.003Z,10.10
2023-04-11T03:32:44.525Z,10.00
2023-04-11T03:35:14.902Z,10.10
2023-04-11T03:37:43.333Z,10.10
2023-04-11T03:40:12.190Z,10.00
2023-04-11T03:42:42.150Z,10.00
2023-04-11T03:45:10.950Z,10.00
2023-04-11T03:47:39.373Z,10.00
2023-04-11T03:50:08.344Z,10.00
2023-04-11T03:52:36.880Z,9.90
2023-04-11T03:55:06.269Z,9.80
2023-04-11T03:57:34.785Z,9.80
2023-04-11T04:00:06.605Z,9.70
2023-04-11T04:02:35.233Z,9.70
2023-04-11T04:05:03.815Z,9.60
2023-04-11T04:07:32.885Z,9.60
2023-04-11T04:10:01.496Z,9.60
2023-04-11T04:12:29.941Z,9.60
2023-04-11T04:14:58.365Z,9.60
2023-04-11T04:17:28.882Z,9.50
2023-04-11T04:19:57.347Z,9.50
2023-04-11T04:22:26.662Z,9.40
2023-04-11T04:24:58.258Z,9.40
2023-04-11T04:27:26.800Z,9.40
2023-04-11T04:30:04.309Z,9.30
2023-04-11T04:32:34.685Z,9.40
2023-04-11T04:35:03.191Z,9.40
2023-04-11T04:37:31.604Z,9.40
2023-04-11T04:40:07.883Z,9.40
2023-04-11T04:42:37.012Z,9.20
2023-04-11T04:45:06.078Z,9.20
2023-04-11T04:47:37.461Z,9.10
2023-04-11T04:50:06.135Z,9.10
2023-04-11T04:52:34.519Z,9.20
2023-04-11T04:55:04.050Z,9.10
2023-04-11T04:57:33.088Z,9.10
2023-04-11T05:00:01.537Z,9.10
2023-04-11T05:02:30.758Z,9.10
2023-04-11T05:05:04.106Z,9.10
2023-04-11T05:07:32.674Z,9.20
2023-04-11T05:10:01.052Z,9.20
2023-04-11T05:12:29.416Z,9.20
2023-04-11T05:14:57.904Z,9.20
2023-04-11T05:17:27.848Z,9.20
2023-04-11T05:19:56.428Z,9.10
2023-04-11T05:22:26.279Z,9.10
2023-04-11T05:24:54.779Z,9.10
2023-04-11T05:27:23.161Z,9.20
2023-04-11T05:29:51.598Z,9.30
2023-04-11T05:32:20.082Z,9.30
2023-04-11T05:34:52.210Z,9.40
2023-04-11T05:37:21.134Z,9.50
2023-04-11T05:39:52.648Z,9.50
2023-04-11T05:42:21.216Z,9.60
2023-04-11T05:44:49.618Z,9.70
2023-04-11T05:47:18.038Z,9.80
2023-04-11T05:49:46.510Z,9.70
2023-04-11T05:52:14.867Z,9.80
2023-04-11T05:54:43.347Z,9.80
2023-04-11T05:57:13.184Z,9.80
2023-04-11T05:59:41.701Z,9.80
2023-04-11T06:02:10.319Z,9.90
2023-04-11T06:04:39.256Z,9.80
2023-04-11T06:07:08.724Z,9.90
2023-04-11T06:09:37.229Z,10.00
2023-04-11T06:12:05.677Z,10.00
2023-04-11T06:14:35.993Z,10.10
2023-04-11T06:17:05.884Z,10.30
2023-04-11T06:19:34.577Z,10.30
2023-04-11T06:22:03.020Z,10.40
2023-04-11T06:24:37.937Z,10.40
2023-04-11T06:27:09.377Z,10.40
2023-04-11T06:29:39.213Z,10.40
2023-04-11T06:32:08.027Z,10.40
2023-04-11T06:34:36.441Z,10.40
2023-04-11T06:37:04.890Z,10.40
2023-04-11T06:39:33.562Z,10.50
2023-04-11T06:42:02.193Z,10.60
2023-04-11T06:44:30.891Z,10.60
2023-04-11T06:47:00.928Z,10.70
2023-04-11T06:49:29.622Z,10.70
2023-04-11T06:51:59.549Z,10.80
2023-04-11T06:54:27.998Z,10.90
2023-04-11T06:56:57.351Z,11.00
2023-04-11T06:59:25.886Z,11.00
2023-04-11T07:01:54.414Z,11.10
2023-04-11T07:04:24.432Z,11.20
2023-04-11T07:06:53.118Z,11.30
2023-04-11T07:09:21.547Z,11.40
2023-04-11T07:11:49.931Z,11.50
2023-04-11T07:14:18.492Z,11.50
2023-04-11T07:16:46.884Z,11.60
2023-04-11T07:19:15.361Z,11.70
2023-04-11T07:21:45.367Z,11.80
2023-04-11T07:24:14.327Z,11.90
2023-04-11T07:26:42.757Z,11.90
2023-04-11T07:29:13.948Z,12.00
2023-04-11T07:31:45.121Z,12.10
2023-04-11T07:34:13.733Z,12.10
2023-04-11T07:36:42.935Z,12.30
2023-04-11T07:39:14.351Z,12.40
2023-04-11T07:41:42.885Z,12.50
2023-04-11T07:44:11.386Z,12.60
2023-04-11T07:46:39.905Z,12.70
2023-04-11T07:49:08.282Z,12.80
2023-04-11T07:51:36.679Z,12.90
2023-04-11T07:54:05.169Z,13.40
2023-04-11T07:56:34.958Z,13.60
2023-04-11T07:59:03.475Z,14.10
2023-04-11T08:01:32.245Z,14.50
2023-04-11T08:04:01.334Z,14.90
2023-04-11T08:06:31.620Z,15.30
2023-04-11T08:09:00.988Z,15.60
2023-04-11T08:11:29.571Z,15.90
2023-04-11T08:13:59.483Z,15.90
2023-04-11T08:16:28.004Z,15.90
2023-04-11T08:18:57.307Z,16.20
2023-04-11T08:21:26.063Z,16.40
2023-04-11T08:23:54.718Z,16.40
2023-04-11T08:26:23.434Z,16.40
2023-04-11T08:28:51.865Z,16.50
2023-04-11T08:31:21.814Z,16.50
2023-04-11T08:33:50.290Z,16.60
2023-04-11T08:36:18.783Z,16.70
2023-04-11T08:38:47.236Z,16.70
2023-04-11T08:41:15.757Z,16.60
2023-04-11T08:43:46.001Z,16.60
2023-04-11T08:46:14.527Z,16.90
2023-04-11T08:48:44.316Z,16.90
2023-04-11T08:51:14.815Z,16.90
2023-04-11T08:53:43.887Z,17.10
2023-04-11T08:56:15.786Z,17.20
2023-04-11T08:58:44.231Z,17.00
2023-04-11T09:01:28.994Z,16.70
2023-04-11T09:03:59.729Z,16.80
2023-04-11T09:06:32.853Z,16.70
2023-04-11T09:09:01.680Z,16.80
2023-04-11T09:11:30.181Z,16.70
2023-04-11T09:14:08.484Z,16.90
2023-04-11T09:16:37.184Z,17.00
2023-04-11T09:19:23.905Z,16.80
2023-04-11T09:21:52.515Z,16.90
2023-04-11T09:24:21.027Z,16.70
2023-04-11T09:26:49.600Z,16.90
2023-04-11T09:29:36.008Z,16.80
2023-04-11T09:32:04.503Z,16.90
2023-04-11T09:34:34.706Z,16.90
2023-04-11T09:37:03.362Z,16.60
2023-04-11T09:39:32.808Z,16.50
2023-04-11T09:42:03.322Z,16.50
2023-04-11T09:44:38.635Z,16.30
2023-04-11T09:47:07.334Z,16.30
2023-04-11T09:49:37.416Z,16.30
2023-04-11T09:52:06.481Z,16.30
2023-04-11T09:54:35.844Z,16.10
2023-04-11T09:57:04.476Z,16.10
2023-04-11T09:59:33.984Z,16.30
2023-04-11T10:02:02.480Z,16.10
2023-04-11T10:04:31.073Z,15.90
2023-04-11T10:07:07.681Z,15.90
2023-04-11T10:09:38.839Z,16.00
2023-04-11T10:12:07.840Z,16.00
2023-04-11T10:14:46.013Z,15.90
2023-04-11T10:17:18.646Z,15.80
2023-04-11T10:19:51.555Z,15.80
2023-04-11T10:22:35.047Z,15.80
2023-04-11T10:25:21.222Z,15.60
2023-04-11T10:27:50.226Z,15.70
2023-04-11T10:30:18.722Z,15.50
2023-04-11T10:33:02.311Z,15.40
2023-04-11T10:35:31.028Z,15.40
2023-04-11T10:37:59.490Z,15.30
2023-04-11T10:40:29.442Z,15.30
2023-04-11T10:42:58.554Z,15.30
2023-04-11T10:45:27.481Z,15.30
2023-04-11T10:48:12.899Z,15.30
2023-04-11T10:50:44.711Z,15.40
2023-04-11T10:53:33.958Z,15.30
2023-04-11T10:56:04.241Z,15.30
2023-04-11T10:58:35.994Z,15.50
2023-04-11T11:01:25.873Z,15.40
2023-04-11T11:04:01.090Z,15.50
2023-04-11T11:06:31.101Z,15.50
2023-04-11T11:09:00.222Z,15.40
2023-04-11T11:11:30.065Z,15.40
2023-04-11T11:14:00.288Z,15.50
2023-04-11T11:16:28.818Z,15.50
2023-04-11T11:18:59.201Z,15.30
2023-04-11T11:21:28.949Z,15.40
2023-04-11T11:23:58.663Z,15.50
2023-04-11T11:26:42.202Z,15.50
2023-04-11T11:29:11.386Z,15.30
2023-04-11T11:31:41.872Z,15.50
2023-04-11T11:34:23.102Z,15.60
2023-04-11T11:36:53.401Z,15.60
2023-04-11T11:39:22.884Z,15.70
2023-04-11T11:41:53.637Z,15.80
2023-04-11T11:44:22.917Z,15.70
2023-04-11T11:47:03.817Z,15.70
2023-04-11T11:49:44.594Z,15.80
2023-04-11T11:52:13.220Z,15.80
2023-04-11T11:54:45.618Z,15.60
2023-04-11T11:57:20.879Z,15.60
2023-04-11T11:59:54.068Z,15.70
2023-04-11T12:02:23.504Z,15.60
2023-04-11T12:04:52.389Z,15.60
2023-04-11T12:07:22.156Z,15.60
2023-04-11T12:09:51.203Z,15.40
2023-04-11T12:12:21.002Z,15.40
2023-04-11T12:14:55.252Z,15.40
2023-04-11T12:17:23.796Z,15.40
2023-04-11T12:19:56.420Z,15.30
2023-04-11T12:22:25.015Z,15.30
2023-04-11T12:24:53.756Z,15.50
2023-04-11T12:27:23.775Z,15.50
2023-04-11T12:29:52.261Z,15.60
2023-04-11T12:32:20.856Z,15.80
2023-04-11T12:34:49.476Z,15.80
2023-04-11T12:37:18.004Z,15.60
2023-04-11T12:39:46.524Z,15.50
2023-04-11T12:42:16.766Z,15.40
2023-04-11T12:44:51.016Z,15.50
2023-04-11T12:47:19.689Z,15.40
2023-04-11T12:49:48.097Z,15.40
2023-04-11T12:52:16.622Z,15.30
2023-04-11T12:54:45.184Z,15.30
2023-04-11T12:57:13.662Z,15.50
2023-04-11T12:59:42.130Z,15.50
2023-04-11T13:02:12.241Z,15.40
2023-04-11T13:04:41.060Z,15.50
2023-04-11T13:07:10.122Z,15.40
2023-04-11T13:09:38.569Z,15.50
2023-04-11T13:12:07.732Z,15.40
2023-04-11T13:14:37.614Z,15.60
2023-04-11T13:17:06.142Z,15.70
2023-04-11T13:19:35.911Z,15.50
2023-04-11T13:22:04.375Z,15.40
2023-04-11T13:24:33.621Z,15.40
2023-04-11T13:27:02.045Z,15.30
2023-04-11T13:29:30.560Z,15.30
2023-04-11T13:31:59.233Z,15.40
2023-04-11T13:34:27.794Z,15.50
2023-04-11T13:36:57.590Z,15.40
2023-04-11T13:39:26.129Z,15.40
2023-04-11T13:41:54.620Z,15.50
2023-04-11T13:44:23.090Z,15.70
2023-04-11T13:46:51.794Z,15.70
2023-04-11T13:49:20.314Z,15.60
2023-04-11T13:51:48.779Z,15.40
2023-04-11T13:54:18.635Z,15.40
2023-04-11T13:56:47.086Z,15.40
2023-04-11T13:59:15.604Z,15.40
2023-04-11T14:01:44.316Z,15.20
2023-04-11T14:04:13.203Z,15.30
2023-04-11T14:06:43.363Z,15.30
2023-04-11T14:09:11.991Z,15.40
2023-04-11T14:11:41.739Z,15.30
2023-04-11T14:14:10.205Z,15.50
2023-04-11T14:16:38.598Z,15.60
2023-04-11T14:19:07.093Z,15.60
2023-04-11T14:21:35.809Z,15.60
2023-04-11T14:24:04.316Z,15.50
2023-04-11T14:26:32.739Z,15.60
2023-04-11T14:29:03.342Z,15.70
2023-04-11T14:31:31.993Z,15.80
2023-04-11T14:34:00.713Z,15.80
2023-04-11T14:36:29.291Z,15.80
2023-04-11T14:38:57.816Z,15.90
2023-04-11T14:41:26.230Z,15.90
2023-04-11T14:43:54.966Z,15.90
2023-04-11T14:46:25.185Z,15.70
2023-04-11T14:48:53.705Z,15.70
2023-04-11T14:51:23.389Z,15.70
2023-04-11T14:53:55.295Z,15.50
2023-04-11T14:56:24.409Z,15.50
2023-04-11T14:58:52.943Z,15.60
2023-04-11T15:01:21.691Z,15.80
2023-04-11T15:03:51.881Z,15.80
2023-04-11T15:06:20.285Z,15.70
2023-04-11T15:08:50.003Z,15.70
2023-04-11T15:11:19.049Z,15.70
2023-04-11T15:13:48.342Z,15.80
2023-04-11T15:16:18.586Z,15.80
2023-04-11T15:18:47.732Z,15.80
2023-04-11T15:21:17.694Z,15.80
2023-04-11T15:23:46.193Z,15.80
2023-04-11T15:26:14.717Z,15.80
2023-04-11T15:28:44.303Z,15.80
2023-04-11T15:31:14.899Z,15.70
2023-04-11T15:33:43.395Z,15.60
2023-04-11T15:36:11.987Z,15.60
2023-04-11T15:38:42.003Z,15.40
2023-04-11T15:41:10.475Z,15.50
2023-04-11T15:43:38.975Z,15.50
2023-04-11T15:46:07.883Z,15.60
2023-04-11T15:48:36.332Z,15.50
2023-04-11T15:51:09.317Z,15.40
2023-04-11T15:53:37.756Z,15.40
2023-04-11T15:56:08.332Z,15.40
2023-04-11T15:58:36.804Z,15.70
2023-04-11T16:01:05.435Z,15.70
2023-04-11T16:03:34.081Z,15.60
2023-04-11T16:06:03.042Z,15.60
2023-04-11T16:08:31.472Z,15.60
2023-04-11T16:10:59.970Z,15.60
2023-04-11T16:13:29.903Z,15.50
2023-04-11T16:15:59.218Z,15.50
2023-04-11T16:18:27.643Z,15.60
2023-04-11T16:20:56.175Z,15.50
2023-04-11T16:23:24.674Z,15.60
2023-04-11T16:25:52.997Z,15.60
2023-04-11T16:28:21.387Z,15.50
2023-04-11T16:30:51.185Z,15.50
2023-04-11T16:33:19.822Z,15.50
2023-04-11T16:35:48.376Z,15.40
2023-04-11T16:38:16.966Z,15.50
2023-04-11T16:40:46.976Z,15.50
2023-04-11T16:43:15.576Z,15.40
2023-04-11T16:45:44.121Z,15.40
2023-04-11T16:48:13.905Z,15.30
2023-04-11T16:50:42.408Z,15.20
2023-04-11T16:53:10.839Z,15.00
2023-04-11T16:55:39.190Z,15.00
2023-04-11T16:58:08.897Z,15.00
2023-04-11T17:00:38.099Z,14.90
2023-04-11T17:03:07.267Z,14.90
2023-04-11T17:05:38.149Z,14.80
2023-04-11T17:08:06.626Z,14.90
2023-04-11T17:10:34.925Z,14.80
2023-04-11T17:13:03.502Z,14.80
2023-04-11T17:15:32.438Z,14.80
2023-04-11T17:18:01.002Z,14.90
2023-04-11T17:20:29.393Z,14.80
2023-04-11T17:22:59.225Z,14.80
2023-04-11T17:25:30.166Z,14.80
2023-04-11T17:28:00.580Z,14.80
2023-04-11T17:30:30.239Z,14.80
2023-04-11T17:32:58.708Z,14.80
2023-04-11T17:35:28.234Z,14.70
2023-04-11T17:37:56.912Z,14.70
2023-04-11T17:40:26.862Z,14.60
2023-04-11T17:42:57.656Z,14.60
2023-04-11T17:45:26.328Z,14.60
2023-04-11T17:47:55.167Z,14.60
2023-04-11T17:50:23.808Z,14.50
2023-04-11T17:52:52.218Z,14.40
2023-04-11T17:55:20.809Z,14.50
2023-04-11T17:57:50.800Z,14.40
2023-04-11T18:00:23.119Z,14.30
2023-04-11T18:02:52.550Z,14.30
2023-04-11T18:05:24.476Z,14.30
2023-04-11T18:07:54.252Z,14.20
2023-04-11T18:10:23.150Z,14.20
2023-04-11T18:12:53.790Z,14.10
2023-04-11T18:15:23.202Z,14.20
2023-04-11T18:17:51.929Z,14.20
2023-04-11T18:20:20.363Z,14.10
2023-04-11T18:22:50.244Z,14.10
2023-04-11T18:25:19.057Z,14.10
2023-04-11T18:27:48.033Z,14.10
2023-04-11T18:30:18.473Z,14.00
2023-04-11T18:32:49.618Z,14.00
2023-04-11T18:35:19.300Z,13.90
2023-04-11T18:37:47.903Z,13.90
2023-04-11T18:40:17.131Z,13.80
2023-04-11T18:42:47.866Z,13.80
2023-04-11T18:45:20.561Z,13.70
2023-04-11T18:47:49.155Z,13.80
2023-04-11T18:50:18.544Z,13.80
2023-04-11T18:52:51.086Z,13.70
2023-04-11T18:55:21.335Z,13.70
2023-04-11T18:57:52.564Z,13.60
2023-04-11T19:00:24.160Z,13.60
2023-04-11T19:02:52.738Z,13.60
2023-04-11T19:05:21.354Z,13.60
2023-04-11T19:07:50.026Z,13.50
2023-04-11T19:10:18.492Z,13.50
2023-04-11T19:12:47.009Z,13.40
2023-04-11T19:15:15.690Z,13.40
2023-04-11T19:17:45.541Z,13.40
2023-04-11T19:20:15.795Z,13.40
2023-04-11T19:22:44.220Z,13.40
2023-04-11T19:25:13.014Z,13.40
2023-04-11T19:27:42.600Z,13.40
2023-04-11T19:30:13.692Z,13.30
2023-04-11T19:32:43.720Z,13.30
2023-04-11T19:35:14.045Z,13.30
2023-04-11T19:37:42.838Z,13.30
2023-04-11T19:40:13.707Z,13.20
2023-04-11T19:42:42.331Z,13.20
2023-04-11T19:45:11.536Z,13.20
2023-04-11T19:47:40.899Z,13.10
2023-04-11T19:50:12.029Z,13.10
2023-04-11T19:52:42.119Z,13.00
2023-04-11T19:55:10.963Z,13.00
2023-04-11T19:57:40.236Z,13.00
2023-04-11T20:00:13.987Z,13.00
2023-04-11T20:02:45.765Z,13.00
2023-04-11T20:05:15.468Z,13.00
2023-04-11T20:07:45.254Z,13.00
2023-04-11T20:10:14.109Z,13.00
2023-04-11T20:12:42.658Z,12.90
2023-04-11T20:15:11.612Z,12.90
2023-04-11T20:17:40.035Z,13.00
2023-04-11T20:20:11.435Z,13.00
2023-04-11T20:22:40.608Z,13.00
2023-04-11T20:25:11.953Z,13.00
2023-04-11T20:27:40.928Z,13.00
2023-04-11T20:30:10.766Z,12.90
2023-04-11T20:32:39.438Z,12.90
2023-04-11T20:35:08.749Z,12.90
2023-04-11T20:37:37.428Z,12.90
2023-04-11T20:40:08.086Z,12.80
2023-04-11T20:42:40.114Z,12.80
2023-04-11T20:45:10.145Z,12.70
2023-04-11T20:47:38.852Z,12.60
2023-04-11T20:50:09.067Z,12.60
2023-04-11T20:52:37.966Z,12.60
2023-04-11T20:55:06.756Z,12.60
2023-04-11T20:57:35.512Z,12.70
2023-04-11T21:00:12.281Z,12.70
2023-04-11T21:02:42.599Z,12.70
2023-04-11T21:05:12.038Z,12.70
2023-04-11T21:07:40.867Z,12.70
2023-04-11T21:10:09.925Z,12.70
2023-04-11T21:12:38.634Z,12.70
2023-04-11T21:15:09.376Z,12.70
2023-04-11T21:17:39.653Z,12.60
2023-04-11T21:20:17.880Z,12.60
2023-04-11T21:22:46.908Z,12.60
2023-04-11T21:25:15.890Z,12.60
2023-04-11T21:27:44.538Z,12.50
2023-04-11T21:30:14.885Z,12.50
2023-04-11T21:32:43.373Z,12.50
2023-04-11T21:35:12.908Z,12.50
2023-04-11T21:37:41.388Z,12.50
2023-04-11T21:40:10.210Z,12.40
2023-04-11T21:42:38.628Z,12.40
2023-04-11T21:45:08.382Z,12.40
2023-04-11T21:47:38.342Z,12.40
2023-04-11T21:50:07.367Z,12.40
2023-04-11T21:52:35.816Z,12.40
2023-04-11T21:55:06.478Z,12.40
2023-04-11T21:57:36.577Z,12.40
2023-04-11T22:00:06.173Z,12.40
2023-04-11T22:02:34.839Z,12.40
2023-04-11T22:05:06.882Z,12.50
2023-04-11T22:07:39.505Z,12.50
2023-04-11T22:10:11.811Z,12.50
2023-04-11T22:12:40.267Z,12.50
2023-04-11T22:15:11.152Z,12.50
2023-04-11T22:17:41.774Z,12.50
2023-04-11T22:20:12.532Z,12.50
2023-04-11T22:22:40.959Z,12.50
2023-04-11T22:25:10.066Z,12.50
2023-04-11T22:27:38.709Z,12.50
2023-04-11T22:30:08.771Z,12.40
2023-04-11T22:32:38.185Z,12.40
2023-04-11T22:35:08.317Z,12.40
2023-04-11T22:37:38.199Z,12.30
2023-04-11T22:40:07.287Z,12.30
2023-04-11T22:42:35.964Z,12.30
2023-04-11T22:45:04.418Z,12.30
2023-04-11T22:47:34.612Z,12.30
2023-04-11T22:50:03.763Z,12.30
2023-04-11T22:52:32.288Z,12.30
2023-04-11T22:55:02.231Z,12.30
2023-04-11T22:57:30.618Z,12.30
2023-04-11T22:59:59.987Z,12.30
2023-04-11T23:02:31.752Z,12.30
2023-04-11T23:05:02.344Z,12.30
2023-04-11T23:07:30.883Z,12.30
2023-04-11T23:10:01.193Z,12.30
2023-04-11T23:12:31.594Z,12.30
2023-04-11T23:15:01.313Z,12.20
2023-04-11T23:17:29.999Z,12.30
2023-04-11T23:20:02.810Z,12.20
2023-04-11T23:22:31.518Z,12.20
2023-04-11T23:24:59.965Z,12.20
2023-04-11T23:27:28.848Z,12.20
2023-04-11T23:29:59.315Z,12.20
2023-04-11T23:32:28.040Z,12.20
2023-04-11T23:34:57.097Z,12.20
2023-04-11T23:37:27.196Z,12.20
2023-04-11T23:39:55.677Z,12.30
2023-04-11T23:42:24.059Z,12.20
2023-04-11T23:44:52.445Z,12.30
2023-04-11T23:47:22.485Z,12.30
2023-04-11T23:49:50.999Z,12.30
2023-04-11T23:52:19.431Z,12.30
2023-04-11T23:54:47.979Z,12.20
2023-04-11T23:57:16.466Z,12.30
2023-04-11T23:59:44.838Z,12.30
